createdAt,value
2022-12-12T00:01:33.005Z,15.13
2022-12-12T00:04:01.434Z,17.58
2022-12-12T00:06:30.223Z,17.33
2022-12-12T00:08:58.112Z,22.02
2022-12-12T00:11:27.572Z,14.93
2022-12-12T00:13:56.588Z,14.85
2022-12-12T00:16:26.704Z,13.00
2022-12-12T00:18:55.197Z,16.10
2022-12-12T00:21:26.852Z,16.08
2022-12-12T00:23:56.153Z,13.43
2022-12-12T00:26:28.382Z,16.05
2022-12-12T00:28:58.090Z,16.42
2022-12-12T00:31:27.604Z,15.15
2022-12-12T00:33:55.986Z,13.63
2022-12-12T00:36:27.002Z,14.32
2022-12-12T00:38:55.832Z,16.23
2022-12-12T00:41:24.949Z,12.55
2022-12-12T00:43:52.907Z,16.08
2022-12-12T00:46:24.419Z,16.10
2022-12-12T00:48:58.134Z,12.90
2022-12-12T00:51:28.096Z,16.77
2022-12-12T00:53:58.408Z,15.20
2022-12-12T00:56:29.095Z,17.80
2022-12-12T00:58:56.951Z,12.65
2022-12-12T01:01:29.995Z,12.70
2022-12-12T01:03:59.286Z,13.48
2022-12-12T01:06:28.497Z,15.82
2022-12-12T01:08:56.584Z,12.88
2022-12-12T01:11:24.942Z,12.43
2022-12-12T01:13:54.345Z,16.15
2022-12-12T01:16:23.608Z,13.85
2022-12-12T01:18:51.766Z,17.10
2022-12-12T01:21:21.372Z,14.48
2022-12-12T01:23:49.981Z,15.93
2022-12-12T01:26:21.652Z,17.30
2022-12-12T01:28:49.637Z,13.95
2022-12-12T01:31:20.237Z,23.50
2022-12-12T01:33:48.272Z,16.40
2022-12-12T01:36:19.322Z,16.25
2022-12-12T01:38:48.776Z,15.25
2022-12-12T01:41:19.217Z,17.60
2022-12-12T01:43:47.591Z,18.30
2022-12-12T01:46:37.785Z,21.83
2022-12-12T01:49:09.546Z,17.15
2022-12-12T01:51:40.363Z,36.47
2022-12-12T01:54:12.023Z,21.05
2022-12-12T01:56:42.803Z,51.03
2022-12-12T01:59:14.455Z,24.58
2022-12-12T02:01:43.275Z,48.28
2022-12-12T02:04:13.132Z,49.47
2022-12-12T02:06:43.572Z,39.63
2022-12-12T02:09:14.281Z,15.23
2022-12-12T02:11:46.571Z,17.88
2022-12-12T02:14:19.020Z,17.73
2022-12-12T02:17:05.210Z,18.77
2022-12-12T02:19:38.874Z,13.25
2022-12-12T02:22:26.020Z,12.85
2022-12-12T02:25:29.273Z,12.23
2022-12-12T02:28:03.414Z,8.60
2022-12-12T02:33:48.856Z,6.68
2022-12-12T02:36:40.702Z,10.27
2022-12-12T02:39:14.793Z,9.63
2022-12-12T02:41:55.561Z,8.18
2022-12-12T02:44:34.251Z,6.93
2022-12-12T02:47:21.619Z,8.50
2022-12-12T02:49:57.852Z,6.15
2022-12-12T02:52:26.249Z,13.70
2022-12-12T02:54:54.492Z,10.38
2022-12-12T02:57:25.372Z,7.88
2022-12-12T02:59:58.513Z,8.77
2022-12-12T03:02:50.261Z,9.80
2022-12-12T03:05:48.165Z,14.55
2022-12-12T03:08:34.223Z,8.68
2022-12-12T03:11:17.453Z,7.45
2022-12-12T03:13:48.257Z,6.40
2022-12-12T03:16:32.942Z,8.98
2022-12-12T03:19:17.666Z,9.63
2022-12-12T03:22:24.833Z,13.43
2022-12-12T03:25:03.724Z,12.95
2022-12-12T03:27:43.473Z,13.73
2022-12-12T03:30:18.083Z,13.30
2022-12-12T03:33:17.052Z,13.75
2022-12-12T03:35:50.503Z,12.60
2022-12-12T03:38:27.103Z,12.88
2022-12-12T03:41:02.103Z,7.43
2022-12-12T03:43:35.813Z,9.32
2022-12-12T03:49:07.924Z,9.45
2022-12-12T03:51:48.506Z,9.00
2022-12-12T03:55:15.850Z,12.05
2022-12-12T03:58:00.303Z,8.20
2022-12-12T04:00:32.692Z,11.18
2022-12-12T04:03:11.107Z,9.80
2022-12-12T04:06:25.982Z,10.40
2022-12-12T04:09:22.036Z,16.65
2022-12-12T04:12:38.605Z,13.90
2022-12-12T04:15:44.605Z,12.30
2022-12-12T04:18:36.542Z,14.68
2022-12-12T04:21:57.804Z,15.98
2022-12-12T04:24:39.311Z,27.42
2022-12-12T04:27:29.281Z,95.03
2022-12-12T04:30:09.793Z,32.55
2022-12-12T04:32:53.212Z,45.25
2022-12-12T04:35:28.634Z,21.13
2022-12-12T04:38:03.882Z,18.73
2022-12-12T04:40:39.471Z,15.98
2022-12-12T04:43:12.644Z,18.30
2022-12-12T04:45:48.612Z,18.88
2022-12-12T04:48:21.413Z,19.33
2022-12-12T04:50:53.716Z,15.20
2022-12-12T04:53:30.273Z,18.08
2022-12-12T04:56:05.824Z,19.73
2022-12-12T05:01:09.324Z,16.83
2022-12-12T05:03:59.381Z,16.58
2022-12-12T05:06:38.053Z,23.08
2022-12-12T05:09:07.994Z,18.52
2022-12-12T05:11:38.943Z,16.95
2022-12-12T05:14:09.853Z,59.00
2022-12-12T05:16:53.220Z,68.30
2022-12-12T05:19:21.282Z,85.20
2022-12-12T05:21:50.743Z,30.95
2022-12-12T05:24:18.726Z,19.10
2022-12-12T05:26:47.243Z,14.95
2022-12-12T05:29:15.203Z,15.75
2022-12-12T05:31:44.532Z,22.25
2022-12-12T05:34:13.192Z,10.85
2022-12-12T05:36:41.737Z,48.80
2022-12-12T05:39:09.721Z,42.40
2022-12-12T05:41:38.152Z,47.22
2022-12-12T05:44:06.202Z,28.83
2022-12-12T05:46:34.496Z,52.97
2022-12-12T05:49:02.451Z,44.55
2022-12-12T05:51:31.922Z,28.98
2022-12-12T05:54:01.733Z,91.80
2022-12-12T05:56:30.100Z,32.50
2022-12-12T05:58:58.202Z,88.32
2022-12-12T06:01:26.593Z,78.95
2022-12-12T06:03:54.643Z,127.65
2022-12-12T06:06:24.364Z,121.07
2022-12-12T06:08:52.402Z,152.35
2022-12-12T06:11:20.702Z,106.53
2022-12-12T06:13:48.771Z,82.00
2022-12-12T06:16:19.429Z,122.80
2022-12-12T06:18:52.572Z,110.88
2022-12-12T06:21:22.180Z,87.57
2022-12-12T06:23:50.421Z,81.43
2022-12-12T06:26:20.131Z,102.00
2022-12-12T06:28:48.166Z,39.45
2022-12-12T06:31:17.239Z,59.35
2022-12-12T06:33:45.368Z,59.30
2022-12-12T06:36:26.563Z,86.47
2022-12-12T06:38:59.454Z,159.68
2022-12-12T06:41:31.312Z,89.68
2022-12-12T06:43:59.870Z,26.23
2022-12-12T06:46:30.909Z,47.05
2022-12-12T06:48:59.359Z,54.50
2022-12-12T06:51:36.539Z,41.53
2022-12-12T06:54:05.145Z,50.72
2022-12-12T06:56:33.453Z,17.63
2022-12-12T06:59:01.419Z,35.33
2022-12-12T07:01:30.998Z,29.27
2022-12-12T07:03:59.963Z,22.92
2022-12-12T07:06:28.957Z,67.70
2022-12-12T07:08:59.221Z,59.88
2022-12-12T07:11:28.579Z,25.48
2022-12-12T07:13:58.155Z,18.35
2022-12-12T07:16:26.599Z,12.77
2022-12-12T07:18:54.536Z,23.45
2022-12-12T07:21:22.934Z,15.10
2022-12-12T07:23:50.912Z,16.75
2022-12-12T07:26:22.833Z,10.75
2022-12-12T07:28:51.805Z,13.48
2022-12-12T07:31:40.366Z,15.43
2022-12-12T07:34:15.035Z,17.30
2022-12-12T07:36:43.601Z,13.13
2022-12-12T07:39:15.878Z,13.27
2022-12-12T07:41:47.256Z,12.55
2022-12-12T07:44:20.873Z,15.03
2022-12-12T07:46:50.314Z,14.57
2022-12-12T07:49:18.511Z,13.10
2022-12-12T07:51:49.240Z,11.80
2022-12-12T07:54:17.933Z,13.35
2022-12-12T07:56:46.406Z,13.15
2022-12-12T07:59:14.433Z,12.48
2022-12-12T08:01:43.025Z,12.57
2022-12-12T08:04:11.153Z,15.18
2022-12-12T08:06:39.574Z,16.13
2022-12-12T08:09:07.587Z,14.98
2022-12-12T08:11:40.742Z,12.55
2022-12-12T08:14:14.334Z,12.55
2022-12-12T08:16:43.804Z,11.95
2022-12-12T08:19:13.243Z,12.63
2022-12-12T08:21:43.435Z,13.52
2022-12-12T08:24:15.832Z,14.88
2022-12-12T08:26:45.483Z,13.73
2022-12-12T08:29:13.714Z,17.25
2022-12-12T08:31:45.905Z,16.30
2022-12-12T08:34:14.183Z,13.10
2022-12-12T08:36:44.344Z,15.15
2022-12-12T08:39:16.434Z,13.27
2022-12-12T08:41:49.053Z,16.95
2022-12-12T08:44:19.625Z,21.88
2022-12-12T08:46:51.556Z,14.55
2022-12-12T08:49:20.593Z,16.52
2022-12-12T08:51:51.695Z,17.80
2022-12-12T08:54:20.543Z,18.90
2022-12-12T08:56:48.831Z,26.52
2022-12-12T08:59:16.931Z,24.27
2022-12-12T09:01:45.425Z,21.58
2022-12-12T09:04:13.792Z,18.92
2022-12-12T09:06:45.984Z,17.10
2022-12-12T09:09:14.237Z,20.95
2022-12-12T09:11:42.586Z,29.73
2022-12-12T09:14:11.620Z,22.40
2022-12-12T09:16:40.169Z,29.67
2022-12-12T09:19:08.284Z,24.25
2022-12-12T09:21:37.903Z,23.98
2022-12-12T09:24:06.296Z,29.27
2022-12-12T09:26:34.946Z,22.73
2022-12-12T09:29:03.503Z,19.95
2022-12-12T09:31:33.066Z,30.13
2022-12-12T09:34:01.034Z,30.90
2022-12-12T09:36:29.676Z,29.15
2022-12-12T09:38:57.796Z,26.50
2022-12-12T09:41:30.851Z,43.13
2022-12-12T09:44:16.134Z,40.92
2022-12-12T09:46:56.653Z,37.95
2022-12-12T09:49:46.997Z,42.33
2022-12-12T09:52:27.721Z,38.30
2022-12-12T09:55:15.664Z,35.08
2022-12-12T09:57:54.975Z,32.97
2022-12-12T10:00:23.134Z,33.47
2022-12-12T10:03:04.070Z,33.85
2022-12-12T10:05:41.668Z,33.17
2022-12-12T10:08:46.477Z,30.17
2022-12-12T10:11:40.129Z,32.97
2022-12-12T10:14:12.275Z,32.65
2022-12-12T10:16:41.554Z,29.00
2022-12-12T10:19:29.889Z,38.47
2022-12-12T10:22:06.451Z,30.88
2022-12-12T10:24:52.915Z,30.83
2022-12-12T10:27:25.053Z,39.17
2022-12-12T10:29:54.549Z,31.92
2022-12-12T10:32:45.244Z,30.20
2022-12-12T10:35:26.398Z,31.40
2022-12-12T10:38:15.056Z,36.45
2022-12-12T10:41:05.687Z,25.75
2022-12-12T10:44:00.815Z,28.80
2022-12-12T10:46:39.602Z,30.70
2022-12-12T10:49:25.598Z,26.73
2022-12-12T10:51:57.970Z,27.33
2022-12-12T10:54:28.653Z,27.60
2022-12-12T10:57:06.105Z,28.13
2022-12-12T10:59:45.595Z,27.60
2022-12-12T11:02:28.780Z,34.97
2022-12-12T11:05:06.548Z,33.33
2022-12-12T11:07:47.772Z,26.92
2022-12-12T11:10:23.382Z,24.88
2022-12-12T11:13:16.644Z,30.33
2022-12-12T11:15:56.927Z,24.75
2022-12-12T11:18:26.214Z,26.88
2022-12-12T11:21:13.723Z,29.42
2022-12-12T11:23:50.814Z,32.95
2022-12-12T11:26:21.126Z,25.77
2022-12-12T11:28:59.972Z,25.50
2022-12-12T11:31:32.933Z,25.15
2022-12-12T11:34:07.762Z,24.77
2022-12-12T11:36:42.034Z,31.60
2022-12-12T11:39:25.176Z,25.55
2022-12-12T11:42:19.697Z,23.80
2022-12-12T11:45:17.774Z,28.58
2022-12-12T11:47:47.645Z,23.05
2022-12-12T11:50:26.095Z,28.63
2022-12-12T11:52:56.783Z,26.33
2022-12-12T11:55:39.946Z,26.05
2022-12-12T11:58:22.916Z,24.92
2022-12-12T12:01:03.479Z,22.10
2022-12-12T12:03:49.478Z,24.17
2022-12-12T12:06:56.704Z,27.58
2022-12-12T12:09:48.852Z,25.33
2022-12-12T12:12:35.609Z,27.13
2022-12-12T12:15:22.621Z,25.27
2022-12-12T12:18:28.440Z,27.25
2022-12-12T12:21:22.616Z,29.40
2022-12-12T12:24:06.345Z,25.20
2022-12-12T12:26:47.852Z,26.88
2022-12-12T12:29:39.322Z,23.27
2022-12-12T12:32:26.152Z,25.33
2022-12-12T12:35:19.984Z,21.45
2022-12-12T12:37:54.964Z,26.50
2022-12-12T12:40:56.383Z,23.80
2022-12-12T12:44:18.878Z,26.13
2022-12-12T12:47:04.955Z,29.88
2022-12-12T12:49:55.944Z,29.30
2022-12-12T12:52:55.039Z,28.88
2022-12-12T12:55:51.765Z,31.83
2022-12-12T12:58:28.554Z,29.92
2022-12-12T13:01:15.006Z,32.33
2022-12-12T13:03:55.325Z,24.77
2022-12-12T13:06:43.654Z,27.05
2022-12-12T13:09:39.114Z,25.55
2022-12-12T13:12:25.953Z,19.85
2022-12-12T13:15:01.788Z,26.60
2022-12-12T13:17:52.115Z,26.17
2022-12-12T13:20:25.504Z,29.10
2022-12-12T13:23:20.764Z,32.92
2022-12-12T13:26:12.326Z,27.10
2022-12-12T13:28:54.384Z,23.05
2022-12-12T13:31:47.747Z,26.80
2022-12-12T13:34:19.725Z,28.55
2022-12-12T13:36:51.544Z,21.73
2022-12-12T13:39:39.034Z,22.23
2022-12-12T13:42:10.594Z,22.98
2022-12-12T13:44:48.488Z,23.02
2022-12-12T13:47:18.046Z,24.35
2022-12-12T13:49:48.420Z,30.98
2022-12-12T13:52:43.793Z,66.82
2022-12-12T13:55:11.665Z,31.25
2022-12-12T13:58:03.026Z,28.33
2022-12-12T14:00:33.344Z,42.95
2022-12-12T14:03:08.067Z,31.02
2022-12-12T14:05:46.676Z,25.17
2022-12-12T14:08:14.948Z,30.50
2022-12-12T14:10:56.276Z,25.20
2022-12-12T14:13:24.624Z,23.50
2022-12-12T14:15:58.555Z,27.90
2022-12-12T14:18:31.628Z,20.67
2022-12-12T14:21:04.759Z,20.77
2022-12-12T14:23:36.424Z,27.27
2022-12-12T14:26:27.509Z,34.13
2022-12-12T14:29:17.345Z,43.33
2022-12-12T14:32:06.585Z,27.35
2022-12-12T14:34:35.454Z,28.35
2022-12-12T14:37:12.494Z,27.63
2022-12-12T14:39:50.515Z,31.85
2022-12-12T14:43:16.406Z,34.65
2022-12-12T14:45:49.723Z,22.75
2022-12-12T14:48:36.642Z,39.42
2022-12-12T14:51:16.602Z,31.10
2022-12-12T14:53:50.889Z,29.77
2022-12-12T14:56:21.064Z,32.25
2022-12-12T14:58:59.778Z,28.17
2022-12-12T15:01:42.796Z,30.83
2022-12-12T15:04:20.100Z,30.15
2022-12-12T15:06:56.243Z,30.33
2022-12-12T15:09:35.976Z,29.67
2022-12-12T15:12:10.455Z,29.90
2022-12-12T15:14:41.943Z,33.53
2022-12-12T15:17:19.896Z,31.55
2022-12-12T15:19:59.364Z,35.22
2022-12-12T15:22:37.497Z,44.90
2022-12-12T15:25:33.437Z,35.17
2022-12-12T15:28:03.465Z,31.45
2022-12-12T15:30:42.397Z,34.33
2022-12-12T15:33:18.042Z,99.22
2022-12-12T15:36:05.505Z,95.78
2022-12-12T15:38:34.846Z,90.10
2022-12-12T15:41:12.795Z,56.50
2022-12-12T15:43:43.412Z,37.83
2022-12-12T15:46:15.971Z,36.65
2022-12-12T15:48:49.955Z,38.53
2022-12-12T15:51:24.645Z,38.50
2022-12-12T15:53:55.848Z,36.53
2022-12-12T15:56:29.699Z,35.78
2022-12-12T15:59:15.522Z,45.97
2022-12-12T16:01:43.975Z,35.47
2022-12-12T16:04:12.258Z,31.88
2022-12-12T16:06:45.742Z,37.25
2022-12-12T16:11:54.119Z,36.20
2022-12-12T16:14:43.279Z,46.67
2022-12-12T16:17:18.112Z,42.75
2022-12-12T16:20:03.418Z,46.03
2022-12-12T16:22:34.058Z,43.85
2022-12-12T16:25:24.722Z,41.58
2022-12-12T16:28:13.371Z,49.03
2022-12-12T16:30:43.806Z,44.97
2022-12-12T16:33:30.561Z,40.08
2022-12-12T16:36:01.318Z,33.13
2022-12-12T16:38:31.565Z,40.72
2022-12-12T16:41:05.779Z,35.70
2022-12-12T16:46:01.912Z,29.90
2022-12-12T16:48:36.412Z,34.78
2022-12-12T16:51:07.425Z,36.38
2022-12-12T16:53:38.271Z,37.22
2022-12-12T16:56:06.995Z,31.98
2022-12-12T16:58:35.085Z,34.88
2022-12-12T17:01:05.033Z,37.55
2022-12-12T17:03:33.159Z,32.28
2022-12-12T17:06:02.762Z,31.77
2022-12-12T17:08:30.775Z,35.67
2022-12-12T17:11:09.885Z,35.42
2022-12-12T17:13:48.504Z,40.58
2022-12-12T17:16:19.322Z,38.22
2022-12-12T17:18:49.589Z,36.20
2022-12-12T17:21:18.967Z,33.63
2022-12-12T17:23:47.057Z,34.42
2022-12-12T17:26:15.566Z,38.67
2022-12-12T17:28:43.546Z,48.13
2022-12-12T17:31:13.156Z,42.00
2022-12-12T17:33:49.909Z,46.72
2022-12-12T17:36:20.015Z,39.92
2022-12-12T17:38:48.993Z,40.00
2022-12-12T17:41:17.663Z,33.60
2022-12-12T17:43:49.327Z,35.97
2022-12-12T17:46:20.674Z,37.33
2022-12-12T17:48:48.931Z,42.33
2022-12-12T17:51:21.378Z,32.92
2022-12-12T17:53:51.598Z,36.15
2022-12-12T17:56:23.580Z,39.28
2022-12-12T17:58:51.879Z,54.75
2022-12-12T18:01:29.360Z,54.10
2022-12-12T18:03:59.155Z,44.97
2022-12-12T18:06:31.799Z,42.75
2022-12-12T18:09:01.055Z,45.30
2022-12-12T18:11:33.317Z,38.45
2022-12-12T18:14:04.276Z,40.97
2022-12-12T18:16:34.384Z,201.05
2022-12-12T18:19:03.285Z,159.38
2022-12-12T18:24:24.833Z,39.05
2022-12-12T18:26:55.604Z,48.58
2022-12-12T18:29:25.074Z,67.63
2022-12-12T18:31:54.091Z,268.40
2022-12-12T18:34:23.493Z,60.83
2022-12-12T18:36:54.085Z,44.72
2022-12-12T18:39:22.258Z,43.63
2022-12-12T18:41:52.306Z,40.83
2022-12-12T18:44:20.473Z,72.55
2022-12-12T18:46:51.110Z,45.78
2022-12-12T18:49:19.423Z,43.75
2022-12-12T18:51:47.930Z,40.40
2022-12-12T18:54:16.783Z,35.40
2022-12-12T18:56:47.166Z,39.45
2022-12-12T18:59:16.036Z,52.28
2022-12-12T19:01:45.287Z,96.28
2022-12-12T19:04:17.730Z,59.38
2022-12-12T19:06:53.313Z,46.97
2022-12-12T19:09:21.952Z,44.80
2022-12-12T19:11:54.289Z,59.55
2022-12-12T19:14:35.709Z,57.25
2022-12-12T19:17:09.367Z,52.42
2022-12-12T19:19:37.611Z,44.08
2022-12-12T19:22:24.813Z,40.08
2022-12-12T19:25:03.698Z,56.97
2022-12-12T19:27:32.178Z,43.63
2022-12-12T19:30:00.155Z,39.00
2022-12-12T19:32:29.027Z,41.85
2022-12-12T19:34:57.192Z,42.90
2022-12-12T19:37:26.440Z,86.50
2022-12-12T19:39:54.745Z,49.83
2022-12-12T19:42:23.573Z,47.50
2022-12-12T19:44:51.654Z,42.35
2022-12-12T19:47:20.131Z,44.50
2022-12-12T19:49:49.891Z,42.40
2022-12-12T19:52:20.137Z,33.00
2022-12-12T19:54:48.088Z,43.30
2022-12-12T19:57:16.452Z,41.47
2022-12-12T19:59:44.573Z,40.45
2022-12-12T20:02:13.485Z,38.20
2022-12-12T20:04:41.877Z,34.08
2022-12-12T20:07:10.322Z,42.05
2022-12-12T20:09:38.457Z,39.40
2022-12-12T20:12:06.862Z,43.67
2022-12-12T20:14:37.195Z,37.92
2022-12-12T20:17:05.578Z,40.20
2022-12-12T20:19:33.443Z,35.75
2022-12-12T20:22:03.015Z,32.63
2022-12-12T20:24:34.090Z,43.42
2022-12-12T20:27:04.007Z,30.95
2022-12-12T20:29:32.844Z,44.15
2022-12-12T20:32:01.893Z,38.13
2022-12-12T20:34:30.483Z,29.80
2022-12-12T20:36:58.995Z,27.27
2022-12-12T20:39:27.054Z,36.17
2022-12-12T20:41:57.337Z,34.88
2022-12-12T20:44:26.021Z,38.40
2022-12-12T20:46:56.133Z,36.15
2022-12-12T20:49:25.021Z,43.03
2022-12-12T20:51:55.919Z,39.72
2022-12-12T20:54:27.824Z,30.55
2022-12-12T20:56:58.567Z,44.45
2022-12-12T20:59:27.217Z,58.65
2022-12-12T21:01:55.675Z,176.00
2022-12-12T21:04:24.593Z,182.18
2022-12-12T21:06:54.485Z,55.70
2022-12-12T21:09:26.446Z,121.50
2022-12-12T21:11:58.641Z,139.95
2022-12-12T21:14:28.339Z,214.35
2022-12-12T21:16:57.244Z,118.82
2022-12-12T21:19:25.326Z,59.67
2022-12-12T21:21:54.905Z,55.72
2022-12-12T21:24:23.042Z,85.68
2022-12-12T21:26:51.474Z,55.50
2022-12-12T21:29:20.063Z,79.45
2022-12-12T21:31:52.026Z,98.70
2022-12-12T21:34:23.131Z,193.75
2022-12-12T21:36:55.908Z,259.10
2022-12-12T21:39:27.217Z,78.00
2022-12-12T21:41:56.355Z,42.55
2022-12-12T21:44:25.256Z,95.93
2022-12-12T21:46:53.819Z,58.70
2022-12-12T21:49:28.388Z,42.55
2022-12-12T21:52:10.178Z,69.07
2022-12-12T21:54:38.449Z,26.48
2022-12-12T21:57:09.645Z,36.45
2022-12-12T21:59:39.068Z,29.90
2022-12-12T22:02:07.953Z,45.42
2022-12-12T22:04:36.094Z,37.47
2022-12-12T22:07:04.681Z,31.00
2022-12-12T22:09:32.642Z,44.78
2022-12-12T22:12:03.517Z,43.40
2022-12-12T22:14:34.403Z,25.92
2022-12-12T22:17:04.652Z,24.42
2022-12-12T22:19:32.987Z,40.45
2022-12-12T22:22:01.393Z,30.15
2022-12-12T22:24:29.699Z,29.02
2022-12-12T22:26:59.677Z,34.72
2022-12-12T22:29:27.738Z,54.33
2022-12-12T22:31:57.122Z,56.13
2022-12-12T22:34:25.696Z,28.48
2022-12-12T22:36:54.318Z,25.77
2022-12-12T22:39:25.423Z,21.58
2022-12-12T22:41:57.182Z,39.60
2022-12-12T22:44:26.426Z,27.67
2022-12-12T22:46:56.570Z,60.63
2022-12-12T22:49:26.541Z,29.27
2022-12-12T22:51:57.315Z,34.50
2022-12-12T22:54:26.102Z,65.38
2022-12-12T22:56:55.303Z,46.85
2022-12-12T22:59:25.501Z,33.10
2022-12-12T23:01:53.758Z,36.20
2022-12-12T23:04:21.969Z,30.08
2022-12-12T23:06:50.521Z,26.60
2022-12-12T23:09:22.079Z,29.40
2022-12-12T23:11:50.690Z,45.30
2022-12-12T23:14:21.966Z,31.30
2022-12-12T23:16:52.029Z,26.88
2022-12-12T23:19:25.937Z,18.90
2022-12-12T23:21:54.420Z,23.25
2022-12-12T23:24:23.092Z,22.30
2022-12-12T23:26:54.971Z,17.02
2022-12-12T23:29:23.524Z,22.23
2022-12-12T23:31:53.475Z,18.38
2022-12-12T23:34:25.383Z,19.20
2022-12-12T23:36:56.897Z,23.30
2022-12-12T23:39:27.681Z,19.83
2022-12-12T23:41:56.091Z,22.45
2022-12-12T23:44:24.939Z,16.73
2022-12-12T23:46:54.407Z,20.98
2022-12-12T23:49:26.645Z,18.75
2022-12-12T23:52:00.232Z,18.27
2022-12-12T23:54:35.203Z,19.65
2022-12-12T23:57:03.560Z,21.38
2022-12-12T23:59:31.674Z,21.25
